sensor_id;sensor_type;location;lat;lon;timestamp;pressure;altitude;pressure_sealevel;temperature;humidity
43071;BME280;36278;47.952;21.714;2024-02-21T00:00:47;100966.16;;;7.28;100.00
43071;BME280;36278;47.952;21.714;2024-02-21T00:03:14;100971.34;;;7.30;100.00
43071;BME280;36278;47.952;21.714;2024-02-21T00:05:40;100972.44;;;7.26;100.00
43071;BME280;36278;47.952;21.714;2024-02-21T00:08:06;100972.66;;;7.21;100.00
43071;BME280;36278;47.952;21.714;2024-02-21T00:10:32;100970.81;;;7.23;100.00
43071;BME280;36278;47.952;21.714;2024-02-21T00:12:58;100973.13;;;7.29;100.00
43071;BME280;36278;47.952;21.714;2024-02-21T00:15:27;100979.97;;;7.34;100.00
43071;BME280;36278;47.952;21.714;2024-02-21T00:17:53;100978.56;;;7.26;100.00
43071;BME280;36278;47.952;21.714;2024-02-21T00:20:19;100974.91;;;7.29;100.00
43071;BME280;36278;47.952;21.714;2024-02-21T00:22:45;100975.59;;;7.32;100.00
43071;BME280;36278;47.952;21.714;2024-02-21T00:25:12;100972.97;;;7.32;100.00
43071;BME280;36278;47.952;21.714;2024-02-21T00:27:38;100963.31;;;7.33;100.00
43071;BME280;36278;47.952;21.714;2024-02-21T00:30:07;100965.06;;;7.32;100.00
43071;BME280;36278;47.952;21.714;2024-02-21T00:32:33;100952.69;;;7.17;100.00
43071;BME280;36278;47.952;21.714;2024-02-21T00:35:00;100951.31;;;7.10;100.00
43071;BME280;36278;47.952;21.714;2024-02-21T00:37:27;100970.22;;;7.01;100.00
43071;BME280;36278;47.952;21.714;2024-02-21T00:39:53;100967.06;;;6.75;100.00
43071;BME280;36278;47.952;21.714;2024-02-21T00:42:19;100967.03;;;6.58;100.00
43071;BME280;36278;47.952;21.714;2024-02-21T00:44:44;100958.84;;;6.64;100.00
43071;BME280;36278;47.952;21.714;2024-02-21T00:47:10;100960.16;;;6.56;100.00
43071;BME280;36278;47.952;21.714;2024-02-21T00:49:35;100961.19;;;6.53;100.00
43071;BME280;36278;47.952;21.714;2024-02-21T00:52:01;100951.50;;;6.54;100.00
43071;BME280;36278;47.952;21.714;2024-02-21T00:54:26;100941.81;;;6.54;100.00
43071;BME280;36278;47.952;21.714;2024-02-21T00:56:52;100948.09;;;6.52;100.00
43071;BME280;36278;47.952;21.714;2024-02-21T00:59:17;100952.63;;;6.48;100.00
43071;BME280;36278;47.952;21.714;2024-02-21T01:01:43;100946.97;;;6.38;100.00
43071;BME280;36278;47.952;21.714;2024-02-21T01:04:09;100950.81;;;6.31;100.00
43071;BME280;36278;47.952;21.714;2024-02-21T01:06:35;100943.09;;;6.28;100.00
43071;BME280;36278;47.952;21.714;2024-02-21T01:09:00;100948.41;;;6.27;100.00
43071;BME280;36278;47.952;21.714;2024-02-21T01:11:25;100955.22;;;6.31;100.00
43071;BME280;36278;47.952;21.714;2024-02-21T01:13:51;100960.22;;;6.37;100.00
43071;BME280;36278;47.952;21.714;2024-02-21T01:16:17;100960.81;;;6.42;100.00
43071;BME280;36278;47.952;21.714;2024-02-21T01:18:42;100961.63;;;6.44;100.00
43071;BME280;36278;47.952;21.714;2024-02-21T01:21:08;100959.28;;;6.38;100.00
43071;BME280;36278;47.952;21.714;2024-02-21T01:23:34;100953.16;;;6.37;100.00
43071;BME280;36278;47.952;21.714;2024-02-21T01:26:00;100943.41;;;6.39;100.00
43071;BME280;36278;47.952;21.714;2024-02-21T01:28:25;100945.88;;;6.42;100.00
43071;BME280;36278;47.952;21.714;2024-02-21T01:30:51;100938.00;;;6.42;100.00
43071;BME280;36278;47.952;21.714;2024-02-21T01:33:17;100936.94;;;6.46;100.00
43071;BME280;36278;47.952;21.714;2024-02-21T01:35:42;100929.13;;;6.45;100.00
43071;BME280;36278;47.952;21.714;2024-02-21T01:38:08;100931.50;;;6.50;100.00
43071;BME280;36278;47.952;21.714;2024-02-21T01:40:33;100914.78;;;6.51;100.00
43071;BME280;36278;47.952;21.714;2024-02-21T01:42:59;100915.72;;;6.50;100.00
43071;BME280;36278;47.952;21.714;2024-02-21T01:45:24;100909.69;;;6.47;100.00
43071;BME280;36278;47.952;21.714;2024-02-21T01:47:50;100920.91;;;6.51;100.00
43071;BME280;36278;47.952;21.714;2024-02-21T01:50:16;100909.50;;;6.51;100.00
43071;BME280;36278;47.952;21.714;2024-02-21T01:52:46;100905.25;;;6.48;100.00
43071;BME280;36278;47.952;21.714;2024-02-21T01:55:14;100893.97;;;6.46;100.00
43071;BME280;36278;47.952;21.714;2024-02-21T01:57:41;100900.63;;;6.53;100.00
43071;BME280;36278;47.952;21.714;2024-02-21T02:00:09;100910.78;;;6.61;100.00
43071;BME280;36278;47.952;21.714;2024-02-21T02:02:35;100911.72;;;6.60;100.00
43071;BME280;36278;47.952;21.714;2024-02-21T02:05:02;100909.84;;;6.62;100.00
43071;BME280;36278;47.952;21.714;2024-02-21T02:07:28;100906.75;;;6.54;100.00
43071;BME280;36278;47.952;21.714;2024-02-21T02:09:53;100893.25;;;6.42;100.00
43071;BME280;36278;47.952;21.714;2024-02-21T02:12:19;100897.13;;;6.35;100.00
43071;BME280;36278;47.952;21.714;2024-02-21T02:14:44;100911.16;;;6.36;100.00
43071;BME280;36278;47.952;21.714;2024-02-21T02:17:10;100908.66;;;6.33;100.00
43071;BME280;36278;47.952;21.714;2024-02-21T02:19:35;100915.69;;;6.32;100.00
43071;BME280;36278;47.952;21.714;2024-02-21T02:22:09;100913.69;;;6.37;100.00
43071;BME280;36278;47.952;21.714;2024-02-21T02:24:39;100912.75;;;6.38;100.00
43071;BME280;36278;47.952;21.714;2024-02-21T02:27:05;100915.47;;;6.37;100.00
43071;BME280;36278;47.952;21.714;2024-02-21T02:29:32;100909.38;;;6.36;100.00
43071;BME280;36278;47.952;21.714;2024-02-21T02:31:57;100916.25;;;6.39;100.00
43071;BME280;36278;47.952;21.714;2024-02-21T02:34:23;100907.72;;;6.34;100.00
43071;BME280;36278;47.952;21.714;2024-02-21T02:36:48;100922.28;;;6.41;100.00
43071;BME280;36278;47.952;21.714;2024-02-21T02:39:14;100919.53;;;6.44;100.00
43071;BME280;36278;47.952;21.714;2024-02-21T02:41:40;100908.81;;;6.47;100.00
43071;BME280;36278;47.952;21.714;2024-02-21T02:44:05;100905.06;;;6.53;100.00
43071;BME280;36278;47.952;21.714;2024-02-21T02:46:30;100916.91;;;6.61;100.00
43071;BME280;36278;47.952;21.714;2024-02-21T02:48:56;100905.75;;;6.56;100.00
43071;BME280;36278;47.952;21.714;2024-02-21T02:51:21;100910.22;;;6.54;100.00
43071;BME280;36278;47.952;21.714;2024-02-21T02:53:47;100910.84;;;6.59;100.00
43071;BME280;36278;47.952;21.714;2024-02-21T02:56:15;100902.94;;;6.59;100.00
43071;BME280;36278;47.952;21.714;2024-02-21T02:58:43;100916.91;;;6.61;100.00
43071;BME280;36278;47.952;21.714;2024-02-21T03:01:08;100915.13;;;6.62;100.00
43071;BME280;36278;47.952;21.714;2024-02-21T03:03:34;100920.31;;;6.63;100.00
43071;BME280;36278;47.952;21.714;2024-02-21T03:05:59;100923.56;;;6.68;100.00
43071;BME280;36278;47.952;21.714;2024-02-21T03:08:25;100921.91;;;6.66;100.00
43071;BME280;36278;47.952;21.714;2024-02-21T03:10:50;100918.59;;;6.62;100.00
43071;BME280;36278;47.952;21.714;2024-02-21T03:13:15;100922.25;;;6.60;100.00
43071;BME280;36278;47.952;21.714;2024-02-21T03:15:41;100928.28;;;6.62;100.00
43071;BME280;36278;47.952;21.714;2024-02-21T03:18:07;100930.38;;;6.55;100.00
43071;BME280;36278;47.952;21.714;2024-02-21T03:20:32;100925.19;;;6.54;100.00
43071;BME280;36278;47.952;21.714;2024-02-21T03:22:57;100930.56;;;6.51;100.00
43071;BME280;36278;47.952;21.714;2024-02-21T03:25:23;100933.56;;;6.43;100.00
43071;BME280;36278;47.952;21.714;2024-02-21T03:27:48;100929.41;;;6.39;100.00
43071;BME280;36278;47.952;21.714;2024-02-21T03:30:14;100928.16;;;6.29;100.00
43071;BME280;36278;47.952;21.714;2024-02-21T03:32:39;100931.72;;;6.28;100.00
43071;BME280;36278;47.952;21.714;2024-02-21T03:35:05;100934.19;;;6.31;100.00
43071;BME280;36278;47.952;21.714;2024-02-21T03:37:31;100936.16;;;6.26;100.00
43071;BME280;36278;47.952;21.714;2024-02-21T03:39:56;100936.97;;;6.28;100.00
43071;BME280;36278;47.952;21.714;2024-02-21T03:42:22;100935.03;;;6.31;100.00
43071;BME280;36278;47.952;21.714;2024-02-21T03:44:47;100932.00;;;6.22;100.00
43071;BME280;36278;47.952;21.714;2024-02-21T03:47:13;100935.31;;;6.25;100.00
43071;BME280;36278;47.952;21.714;2024-02-21T03:49:38;100932.06;;;6.20;100.00
43071;BME280;36278;47.952;21.714;2024-02-21T03:52:04;100938.31;;;6.17;100.00
43071;BME280;36278;47.952;21.714;2024-02-21T03:54:29;100930.50;;;6.16;100.00
43071;BME280;36278;47.952;21.714;2024-02-21T03:56:55;100928.81;;;6.15;100.00
43071;BME280;36278;47.952;21.714;2024-02-21T03:59:20;100940.91;;;6.19;100.00
43071;BME280;36278;47.952;21.714;2024-02-21T04:01:46;100937.47;;;6.17;100.00
43071;BME280;36278;47.952;21.714;2024-02-21T04:04:11;100935.84;;;6.14;100.00
43071;BME280;36278;47.952;21.714;2024-02-21T04:06:45;100940.34;;;6.12;100.00
43071;BME280;36278;47.952;21.714;2024-02-21T04:09:10;100948.31;;;6.11;100.00
43071;BME280;36278;47.952;21.714;2024-02-21T04:11:36;100944.09;;;6.07;100.00
43071;BME280;36278;47.952;21.714;2024-02-21T04:14:01;100950.44;;;6.03;100.00
43071;BME280;36278;47.952;21.714;2024-02-21T04:16:27;100950.06;;;5.92;100.00
43071;BME280;36278;47.952;21.714;2024-02-21T04:18:52;100951.22;;;5.84;100.00
43071;BME280;36278;47.952;21.714;2024-02-21T04:21:17;100948.94;;;5.77;100.00
43071;BME280;36278;47.952;21.714;2024-02-21T04:23:43;100950.03;;;5.73;100.00
43071;BME280;36278;47.952;21.714;2024-02-21T04:26:08;100950.03;;;5.73;100.00
43071;BME280;36278;47.952;21.714;2024-02-21T04:28:34;100951.06;;;5.69;100.00
43071;BME280;36278;47.952;21.714;2024-02-21T04:30:59;100947.81;;;5.63;100.00
43071;BME280;36278;47.952;21.714;2024-02-21T04:33:25;100953.69;;;5.69;100.00
43071;BME280;36278;47.952;21.714;2024-02-21T04:35:50;100952.28;;;5.61;100.00
43071;BME280;36278;47.952;21.714;2024-02-21T04:38:17;100957.41;;;5.65;100.00
43071;BME280;36278;47.952;21.714;2024-02-21T04:40:42;100961.75;;;5.66;100.00
43071;BME280;36278;47.952;21.714;2024-02-21T04:43:08;100960.31;;;5.58;100.00
43071;BME280;36278;47.952;21.714;2024-02-21T04:45:33;100959.03;;;5.48;100.00
43071;BME280;36278;47.952;21.714;2024-02-21T04:47:59;100959.28;;;5.42;100.00
43071;BME280;36278;47.952;21.714;2024-02-21T04:50:24;100969.78;;;5.42;100.00
43071;BME280;36278;47.952;21.714;2024-02-21T04:52:49;100962.75;;;5.43;100.00
43071;BME280;36278;47.952;21.714;2024-02-21T04:55:15;100963.53;;;5.45;100.00
43071;BME280;36278;47.952;21.714;2024-02-21T04:57:40;100962.50;;;5.49;100.00
43071;BME280;36278;47.952;21.714;2024-02-21T05:00:06;100962.69;;;5.44;100.00
43071;BME280;36278;47.952;21.714;2024-02-21T05:02:32;100965.03;;;5.50;100.00
43071;BME280;36278;47.952;21.714;2024-02-21T05:04:57;100965.97;;;5.49;100.00
43071;BME280;36278;47.952;21.714;2024-02-21T05:07:23;100960.53;;;5.54;100.00
43071;BME280;36278;47.952;21.714;2024-02-21T05:09:48;100963.66;;;5.62;100.00
43071;BME280;36278;47.952;21.714;2024-02-21T05:12:14;100961.41;;;5.73;100.00
43071;BME280;36278;47.952;21.714;2024-02-21T05:14:39;100958.19;;;5.67;100.00
43071;BME280;36278;47.952;21.714;2024-02-21T05:17:05;100962.16;;;5.75;100.00
43071;BME280;36278;47.952;21.714;2024-02-21T05:19:30;100970.63;;;5.82;100.00
43071;BME280;36278;47.952;21.714;2024-02-21T05:21:55;100968.09;;;5.80;100.00
43071;BME280;36278;47.952;21.714;2024-02-21T05:24:21;100957.22;;;5.88;100.00
43071;BME280;36278;47.952;21.714;2024-02-21T05:26:46;100963.44;;;5.85;100.00
43071;BME280;36278;47.952;21.714;2024-02-21T05:29:12;100979.19;;;5.87;100.00
43071;BME280;36278;47.952;21.714;2024-02-21T05:34:18;100964.19;;;5.89;100.00
43071;BME280;36278;47.952;21.714;2024-02-21T05:36:44;100959.97;;;5.85;100.00
43071;BME280;36278;47.952;21.714;2024-02-21T05:39:10;100963.88;;;5.97;100.00
43071;BME280;36278;47.952;21.714;2024-02-21T05:41:35;100972.59;;;5.97;100.00
43071;BME280;36278;47.952;21.714;2024-02-21T05:44:00;100967.91;;;6.04;100.00
43071;BME280;36278;47.952;21.714;2024-02-21T05:46:26;100951.75;;;5.93;100.00
43071;BME280;36278;47.952;21.714;2024-02-21T05:48:51;100974.59;;;6.11;100.00
43071;BME280;36278;47.952;21.714;2024-02-21T05:51:17;100980.91;;;6.07;100.00
43071;BME280;36278;47.952;21.714;2024-02-21T05:53:42;100977.59;;;6.03;100.00
43071;BME280;36278;47.952;21.714;2024-02-21T05:56:11;100977.28;;;6.09;100.00
43071;BME280;36278;47.952;21.714;2024-02-21T05:58:37;100981.69;;;6.09;100.00
43071;BME280;36278;47.952;21.714;2024-02-21T06:01:03;100980.84;;;6.08;100.00
43071;BME280;36278;47.952;21.714;2024-02-21T06:03:29;100990.50;;;6.08;100.00
43071;BME280;36278;47.952;21.714;2024-02-21T06:05:55;100992.00;;;6.13;100.00
43071;BME280;36278;47.952;21.714;2024-02-21T06:08:20;100986.88;;;6.29;100.00
43071;BME280;36278;47.952;21.714;2024-02-21T06:10:46;100987.59;;;6.33;100.00
43071;BME280;36278;47.952;21.714;2024-02-21T06:13:12;100980.78;;;6.29;100.00
43071;BME280;36278;47.952;21.714;2024-02-21T06:15:37;100981.38;;;6.34;100.00
43071;BME280;36278;47.952;21.714;2024-02-21T06:18:03;100983.03;;;6.36;100.00
43071;BME280;36278;47.952;21.714;2024-02-21T06:20:28;100981.88;;;6.42;100.00
43071;BME280;36278;47.952;21.714;2024-02-21T06:22:54;100980.81;;;6.46;100.00
43071;BME280;36278;47.952;21.714;2024-02-21T06:25:19;100989.25;;;6.35;100.00
43071;BME280;36278;47.952;21.714;2024-02-21T06:27:45;100987.66;;;6.31;100.00
43071;BME280;36278;47.952;21.714;2024-02-21T06:30:10;101002.59;;;6.31;100.00
43071;BME280;36278;47.952;21.714;2024-02-21T06:32:36;100999.88;;;6.32;100.00
43071;BME280;36278;47.952;21.714;2024-02-21T06:35:02;100996.31;;;6.33;100.00
43071;BME280;36278;47.952;21.714;2024-02-21T06:37:30;101008.34;;;6.39;100.00
43071;BME280;36278;47.952;21.714;2024-02-21T06:39:57;101002.22;;;6.38;100.00
43071;BME280;36278;47.952;21.714;2024-02-21T06:42:24;101010.97;;;6.39;100.00
43071;BME280;36278;47.952;21.714;2024-02-21T06:44:50;101012.53;;;6.43;100.00
43071;BME280;36278;47.952;21.714;2024-02-21T06:47:15;101007.63;;;6.54;100.00
43071;BME280;36278;47.952;21.714;2024-02-21T06:49:41;101009.72;;;6.65;100.00
43071;BME280;36278;47.952;21.714;2024-02-21T06:52:07;101015.63;;;6.70;100.00
43071;BME280;36278;47.952;21.714;2024-02-21T06:54:32;101003.25;;;6.72;100.00
43071;BME280;36278;47.952;21.714;2024-02-21T06:56:58;101013.19;;;6.84;100.00
43071;BME280;36278;47.952;21.714;2024-02-21T06:59:24;101015.28;;;6.95;100.00
43071;BME280;36278;47.952;21.714;2024-02-21T07:01:53;101016.13;;;6.95;100.00
43071;BME280;36278;47.952;21.714;2024-02-21T07:04:19;101024.50;;;6.86;100.00
43071;BME280;36278;47.952;21.714;2024-02-21T07:06:45;101022.41;;;6.93;100.00
43071;BME280;36278;47.952;21.714;2024-02-21T07:09:10;101022.25;;;6.96;100.00
43071;BME280;36278;47.952;21.714;2024-02-21T07:11:36;101024.28;;;7.08;100.00
43071;BME280;36278;47.952;21.714;2024-02-21T07:14:02;101016.44;;;7.07;100.00
43071;BME280;36278;47.952;21.714;2024-02-21T07:16:27;101020.56;;;7.12;100.00
43071;BME280;36278;47.952;21.714;2024-02-21T07:18:54;101018.63;;;7.16;100.00
43071;BME280;36278;47.952;21.714;2024-02-21T07:21:20;101021.25;;;7.16;100.00
43071;BME280;36278;47.952;21.714;2024-02-21T07:23:45;101030.09;;;7.15;100.00
43071;BME280;36278;47.952;21.714;2024-02-21T07:26:11;101035.13;;;7.02;100.00
43071;BME280;36278;47.952;21.714;2024-02-21T07:28:36;101038.06;;;7.13;100.00
43071;BME280;36278;47.952;21.714;2024-02-21T07:31:03;101033.19;;;7.23;100.00
43071;BME280;36278;47.952;21.714;2024-02-21T07:33:28;101030.25;;;7.29;100.00
43071;BME280;36278;47.952;21.714;2024-02-21T07:35:56;101032.50;;;7.37;100.00
43071;BME280;36278;47.952;21.714;2024-02-21T07:38:21;101031.03;;;7.31;100.00
43071;BME280;36278;47.952;21.714;2024-02-21T07:40:47;101036.94;;;7.36;100.00
43071;BME280;36278;47.952;21.714;2024-02-21T07:43:13;101038.16;;;7.46;100.00
43071;BME280;36278;47.952;21.714;2024-02-21T07:45:38;101031.56;;;7.55;100.00
43071;BME280;36278;47.952;21.714;2024-02-21T07:48:07;101033.66;;;7.66;100.00
43071;BME280;36278;47.952;21.714;2024-02-21T07:50:33;101040.00;;;7.62;100.00
43071;BME280;36278;47.952;21.714;2024-02-21T07:52:58;101041.31;;;7.70;100.00
43071;BME280;36278;47.952;21.714;2024-02-21T07:55:24;101038.50;;;7.73;100.00
43071;BME280;36278;47.952;21.714;2024-02-21T07:57:49;101043.53;;;7.78;100.00
43071;BME280;36278;47.952;21.714;2024-02-21T08:00:15;101037.41;;;7.77;100.00
43071;BME280;36278;47.952;21.714;2024-02-21T08:02:48;101036.47;;;7.78;100.00
43071;BME280;36278;47.952;21.714;2024-02-21T08:05:14;101036.56;;;7.77;100.00
43071;BME280;36278;47.952;21.714;2024-02-21T08:07:39;101030.53;;;7.75;100.00
43071;BME280;36278;47.952;21.714;2024-02-21T08:10:05;101029.06;;;7.69;100.00
43071;BME280;36278;47.952;21.714;2024-02-21T08:12:33;101029.97;;;7.85;100.00
43071;BME280;36278;47.952;21.714;2024-02-21T08:14:59;101026.16;;;7.91;100.00
43071;BME280;36278;47.952;21.714;2024-02-21T08:17:24;101023.09;;;7.99;100.00
43071;BME280;36278;47.952;21.714;2024-02-21T08:19:49;101030.16;;;7.98;100.00
43071;BME280;36278;47.952;21.714;2024-02-21T08:22:15;101031.78;;;8.01;100.00
43071;BME280;36278;47.952;21.714;2024-02-21T08:24:41;101028.56;;;7.78;100.00
43071;BME280;36278;47.952;21.714;2024-02-21T08:27:07;101018.56;;;7.85;100.00
43071;BME280;36278;47.952;21.714;2024-02-21T08:29:32;101026.78;;;7.79;100.00
43071;BME280;36278;47.952;21.714;2024-02-21T08:31:58;101024.31;;;7.76;100.00
43071;BME280;36278;47.952;21.714;2024-02-21T08:34:23;101028.09;;;7.87;100.00
43071;BME280;36278;47.952;21.714;2024-02-21T08:36:49;101019.84;;;7.94;100.00
43071;BME280;36278;47.952;21.714;2024-02-21T08:39:15;101020.25;;;7.86;100.00
43071;BME280;36278;47.952;21.714;2024-02-21T08:41:42;101024.72;;;8.01;100.00
43071;BME280;36278;47.952;21.714;2024-02-21T08:44:08;101025.06;;;8.11;100.00
43071;BME280;36278;47.952;21.714;2024-02-21T08:46:33;101026.69;;;8.13;100.00
43071;BME280;36278;47.952;21.714;2024-02-21T08:48:59;101019.25;;;8.04;100.00
43071;BME280;36278;47.952;21.714;2024-02-21T08:51:24;101024.31;;;8.09;100.00
43071;BME280;36278;47.952;21.714;2024-02-21T08:53:50;101022.69;;;8.06;100.00
43071;BME280;36278;47.952;21.714;2024-02-21T08:56:17;101023.53;;;8.07;100.00
43071;BME280;36278;47.952;21.714;2024-02-21T08:58:43;101022.59;;;8.08;100.00
43071;BME280;36278;47.952;21.714;2024-02-21T09:01:08;101030.53;;;8.24;100.00
43071;BME280;36278;47.952;21.714;2024-02-21T09:03:37;101026.44;;;8.18;100.00
43071;BME280;36278;47.952;21.714;2024-02-21T09:06:06;101036.03;;;8.36;100.00
43071;BME280;36278;47.952;21.714;2024-02-21T09:08:33;101035.19;;;8.52;100.00
43071;BME280;36278;47.952;21.714;2024-02-21T09:10:59;101037.31;;;8.61;100.00
43071;BME280;36278;47.952;21.714;2024-02-21T09:13:25;101029.47;;;8.75;100.00
43071;BME280;36278;47.952;21.714;2024-02-21T09:15:50;101027.84;;;8.73;100.00
43071;BME280;36278;47.952;21.714;2024-02-21T09:18:16;101037.91;;;8.66;100.00
43071;BME280;36278;47.952;21.714;2024-02-21T09:20:45;101038.56;;;8.85;99.79
43071;BME280;36278;47.952;21.714;2024-02-21T09:23:11;101030.81;;;8.82;100.00
43071;BME280;36278;47.952;21.714;2024-02-21T09:25:37;101038.41;;;8.88;100.00
43071;BME280;36278;47.952;21.714;2024-02-21T09:28:02;101031.19;;;9.06;100.00
43071;BME280;36278;47.952;21.714;2024-02-21T09:30:29;101037.69;;;9.01;99.22
43071;BME280;36278;47.952;21.714;2024-02-21T09:32:54;101037.59;;;9.02;97.49
43071;BME280;36278;47.952;21.714;2024-02-21T09:35:20;101031.31;;;9.19;99.34
43071;BME280;36278;47.952;21.714;2024-02-21T09:37:48;101034.69;;;9.37;99.23
43071;BME280;36278;47.952;21.714;2024-02-21T09:40:15;101030.50;;;9.63;96.58
43071;BME280;36278;47.952;21.714;2024-02-21T09:42:42;101024.84;;;9.97;95.18
43071;BME280;36278;47.952;21.714;2024-02-21T09:45:24;101031.81;;;9.98;88.41
43071;BME280;36278;47.952;21.714;2024-02-21T09:50:43;101032.19;;;9.92;93.60
43071;BME280;36278;47.952;21.714;2024-02-21T09:53:11;101024.84;;;9.97;91.72
43071;BME280;36278;47.952;21.714;2024-02-21T09:55:37;101025.28;;;9.75;90.00
43071;BME280;36278;47.952;21.714;2024-02-21T09:58:05;101020.56;;;9.66;91.69
43071;BME280;36278;47.952;21.714;2024-02-21T10:00:31;101022.28;;;9.96;92.52
43071;BME280;36278;47.952;21.714;2024-02-21T10:02:58;101019.81;;;10.35;87.80
43071;BME280;36278;47.952;21.714;2024-02-21T10:05:23;101019.75;;;10.64;87.58
43071;BME280;36278;47.952;21.714;2024-02-21T10:07:51;101024.16;;;10.78;83.14
43071;BME280;36278;47.952;21.714;2024-02-21T10:10:16;101015.66;;;11.12;82.43
43071;BME280;36278;47.952;21.714;2024-02-21T10:12:51;101016.22;;;11.17;78.08
43071;BME280;36278;47.952;21.714;2024-02-21T10:15:24;101013.13;;;11.23;81.33
43071;BME280;36278;47.952;21.714;2024-02-21T10:17:58;101017.28;;;10.88;81.47
43071;BME280;36278;47.952;21.714;2024-02-21T10:20:23;101014.06;;;10.70;82.37
43071;BME280;36278;47.952;21.714;2024-02-21T10:22:49;101017.28;;;10.75;83.28
43071;BME280;36278;47.952;21.714;2024-02-21T10:25:25;101015.66;;;10.73;84.39
43071;BME280;36278;47.952;21.714;2024-02-21T10:27:50;101012.00;;;10.88;80.28
43071;BME280;36278;47.952;21.714;2024-02-21T10:30:16;101002.53;;;10.57;83.07
43071;BME280;36278;47.952;21.714;2024-02-21T10:32:49;100999.19;;;10.41;85.64
43071;BME280;36278;47.952;21.714;2024-02-21T10:35:15;101003.63;;;10.40;84.25
43071;BME280;36278;47.952;21.714;2024-02-21T10:37:50;100999.72;;;10.60;84.15
43071;BME280;36278;47.952;21.714;2024-02-21T10:40:21;100996.72;;;10.52;81.35
43071;BME280;36278;47.952;21.714;2024-02-21T10:42:48;101001.94;;;10.25;81.63
43071;BME280;36278;47.952;21.714;2024-02-21T10:45:15;100999.00;;;10.44;85.42
43071;BME280;36278;47.952;21.714;2024-02-21T10:47:43;101000.66;;;10.59;84.67
43071;BME280;36278;47.952;21.714;2024-02-21T10:50:15;101001.94;;;10.25;84.04
43071;BME280;36278;47.952;21.714;2024-02-21T10:55:38;100982.94;;;10.18;82.08
43071;BME280;36278;47.952;21.714;2024-02-21T10:58:04;100983.34;;;10.26;82.70
43071;BME280;36278;47.952;21.714;2024-02-21T11:00:30;100976.16;;;10.00;81.69
43071;BME280;36278;47.952;21.714;2024-02-21T11:02:58;100965.38;;;9.89;82.79
43071;BME280;36278;47.952;21.714;2024-02-21T11:05:25;100968.97;;;9.73;87.05
43071;BME280;36278;47.952;21.714;2024-02-21T11:07:51;100974.00;;;9.64;85.48
43071;BME280;36278;47.952;21.714;2024-02-21T11:10:22;100971.16;;;9.81;84.62
43071;BME280;36278;47.952;21.714;2024-02-21T11:12:48;100977.97;;;9.71;84.12
43071;BME280;36278;47.952;21.714;2024-02-21T11:15:14;100977.28;;;9.67;86.16
43071;BME280;36278;47.952;21.714;2024-02-21T11:17:40;100963.69;;;9.73;86.48
43071;BME280;36278;47.952;21.714;2024-02-21T11:20:14;100964.38;;;9.63;86.06
43071;BME280;36278;47.952;21.714;2024-02-21T11:22:43;100960.94;;;9.32;85.02
43071;BME280;36278;47.952;21.714;2024-02-21T11:25:09;100953.84;;;9.33;84.43
43071;BME280;36278;47.952;21.714;2024-02-21T11:27:37;100956.44;;;9.63;84.52
43071;BME280;36278;47.952;21.714;2024-02-21T11:30:04;100942.56;;;10.15;82.61
43071;BME280;36278;47.952;21.714;2024-02-21T11:32:31;100948.91;;;10.53;80.81
43071;BME280;36278;47.952;21.714;2024-02-21T11:35:00;100952.31;;;10.55;80.45
43071;BME280;36278;47.952;21.714;2024-02-21T11:37:34;100944.09;;;10.73;76.77
43071;BME280;36278;47.952;21.714;2024-02-21T11:40:02;100946.53;;;11.28;75.66
43071;BME280;36278;47.952;21.714;2024-02-21T11:42:29;100939.22;;;11.57;74.68
43071;BME280;36278;47.952;21.714;2024-02-21T11:44:56;100937.84;;;11.90;74.03
43071;BME280;36278;47.952;21.714;2024-02-21T11:47:24;100931.94;;;12.10;71.09
43071;BME280;36278;47.952;21.714;2024-02-21T11:49:50;100934.94;;;12.29;69.27
43071;BME280;36278;47.952;21.714;2024-02-21T11:52:23;100934.50;;;12.35;68.12
43071;BME280;36278;47.952;21.714;2024-02-21T11:54:53;100913.75;;;12.65;67.40
43071;BME280;36278;47.952;21.714;2024-02-21T11:57:20;100918.69;;;12.69;63.07
43071;BME280;36278;47.952;21.714;2024-02-21T11:59:46;100918.44;;;12.37;64.67
43071;BME280;36278;47.952;21.714;2024-02-21T12:02:15;100921.84;;;12.39;65.43
43071;BME280;36278;47.952;21.714;2024-02-21T12:04:41;100903.31;;;12.61;61.59
43071;BME280;36278;47.952;21.714;2024-02-21T12:07:07;100897.09;;;12.74;61.36
43071;BME280;36278;47.952;21.714;2024-02-21T12:09:34;100896.22;;;13.08;61.46
43071;BME280;36278;47.952;21.714;2024-02-21T12:12:01;100895.69;;;13.50;61.06
43071;BME280;36278;47.952;21.714;2024-02-21T12:14:29;100893.50;;;13.88;60.52
43071;BME280;36278;47.952;21.714;2024-02-21T12:16:55;100891.59;;;14.22;58.02
43071;BME280;36278;47.952;21.714;2024-02-21T12:19:21;100876.28;;;14.03;56.58
43071;BME280;36278;47.952;21.714;2024-02-21T12:21:48;100887.09;;;14.45;56.99
43071;BME280;36278;47.952;21.714;2024-02-21T12:24:21;100876.09;;;14.92;56.52
43071;BME280;36278;47.952;21.714;2024-02-21T12:26:46;100878.47;;;14.95;55.75
43071;BME280;36278;47.952;21.714;2024-02-21T12:29:12;100873.91;;;14.65;57.12
43071;BME280;36278;47.952;21.714;2024-02-21T12:31:38;100862.03;;;14.69;58.02
43071;BME280;36278;47.952;21.714;2024-02-21T12:34:04;100868.41;;;14.77;55.89
43071;BME280;36278;47.952;21.714;2024-02-21T12:36:33;100868.78;;;14.73;57.91
43071;BME280;36278;47.952;21.714;2024-02-21T12:38:59;100864.88;;;14.77;56.74
43071;BME280;36278;47.952;21.714;2024-02-21T12:41:25;100866.53;;;15.20;55.52
43071;BME280;36278;47.952;21.714;2024-02-21T12:43:52;100858.53;;;15.20;56.54